createdAt,value
2022-07-25T00:00:47.619Z,16.33
2022-07-25T00:06:13.029Z,16.24
2022-07-25T00:11:35.354Z,16.17
2022-07-25T00:16:57.764Z,16.06
2022-07-25T00:22:19.973Z,15.99
2022-07-25T00:27:42.819Z,15.99
2022-07-25T00:33:05.243Z,15.97
2022-07-25T00:38:27.933Z,15.96
2022-07-25T00:43:51.319Z,15.93
2022-07-25T00:49:14.241Z,15.89
2022-07-25T00:54:37.284Z,15.85
2022-07-25T00:59:59.708Z,15.82
2022-07-25T01:05:24.808Z,15.76
2022-07-25T01:10:49.706Z,15.71
2022-07-25T01:16:12.359Z,15.66
2022-07-25T01:21:36.787Z,15.62
2022-07-25T01:26:59.084Z,15.61
2022-07-25T01:32:21.613Z,15.57
2022-07-25T01:37:45.541Z,15.51
2022-07-25T01:43:08.249Z,15.48
2022-07-25T01:48:31.416Z,15.43
2022-07-25T01:53:53.790Z,15.42
2022-07-25T01:59:16.167Z,15.38
2022-07-25T02:04:38.589Z,15.34
2022-07-25T02:10:00.913Z,15.32
2022-07-25T02:15:23.971Z,15.29
2022-07-25T02:20:46.389Z,15.25
2022-07-25T02:26:09.943Z,15.22
2022-07-25T02:31:32.292Z,15.18
2022-07-25T02:36:54.514Z,15.16
2022-07-25T02:42:16.957Z,15.13
2022-07-25T02:47:40.811Z,15.09
2022-07-25T02:53:03.263Z,15.02
2022-07-25T02:58:25.646Z,14.94
2022-07-25T03:03:48.126Z,14.88
2022-07-25T03:09:10.812Z,14.86
2022-07-25T03:14:33.148Z,14.89
2022-07-25T03:19:57.044Z,14.91
2022-07-25T03:25:23.201Z,14.95
2022-07-25T03:30:45.627Z,14.98
2022-07-25T03:36:08.006Z,14.98
2022-07-25T03:41:31.048Z,15.01
2022-07-25T03:46:53.683Z,15.06
2022-07-25T03:52:16.045Z,15.12
2022-07-25T03:57:38.508Z,15.22
2022-07-25T04:03:00.734Z,15.30
2022-07-25T04:08:23.729Z,15.41
2022-07-25T04:13:46.098Z,15.54
2022-07-25T04:19:08.901Z,15.68
2022-07-25T04:24:31.202Z,15.80
2022-07-25T04:29:53.502Z,15.92
2022-07-25T04:35:19.891Z,16.07
2022-07-25T04:40:43.134Z,16.22
2022-07-25T04:46:05.555Z,16.39
2022-07-25T04:51:28.740Z,16.57
2022-07-25T04:56:51.312Z,16.73
2022-07-25T05:02:14.902Z,16.88
2022-07-25T05:07:37.421Z,17.03
2022-07-25T05:12:59.811Z,17.16
2022-07-25T05:18:22.762Z,17.32
2022-07-25T05:23:46.185Z,17.49
2022-07-25T05:29:08.999Z,17.67
2022-07-25T05:34:31.733Z,17.85
2022-07-25T05:39:54.076Z,18.03
2022-07-25T05:45:19.597Z,18.24
2022-07-25T05:50:44.366Z,18.44
2022-07-25T05:56:07.842Z,18.64
2022-07-25T06:01:34.818Z,18.78
2022-07-25T06:06:58.351Z,18.94
2022-07-25T06:12:21.237Z,19.12
2022-07-25T06:17:46.015Z,19.27
2022-07-25T06:23:08.540Z,19.45
2022-07-25T06:28:31.455Z,19.60
2022-07-25T06:33:54.055Z,19.75
2022-07-25T06:39:17.634Z,19.93
2022-07-25T06:44:41.616Z,20.08
2022-07-25T06:50:04.065Z,20.20
2022-07-25T06:55:29.899Z,20.36
2022-07-25T07:00:53.031Z,20.50
2022-07-25T07:06:15.669Z,20.63
2022-07-25T07:11:37.885Z,20.80
2022-07-25T07:17:00.367Z,21.01
2022-07-25T07:22:23.388Z,21.17
2022-07-25T07:27:46.747Z,21.37
2022-07-25T07:33:09.492Z,21.54
2022-07-25T07:38:32.894Z,21.69
2022-07-25T07:43:55.639Z,21.84
2022-07-25T07:49:18.879Z,22.02
2022-07-25T07:54:59.518Z,22.17
2022-07-25T08:00:23.552Z,22.34
2022-07-25T08:05:52.749Z,22.53
2022-07-25T08:11:15.177Z,22.75
2022-07-25T08:16:37.478Z,22.95
2022-07-25T08:22:00.707Z,23.12
2022-07-25T08:27:22.997Z,23.28
2022-07-25T08:32:58.553Z,23.42
2022-07-25T08:38:23.277Z,23.57
2022-07-25T08:43:47.676Z,23.75
2022-07-25T08:49:10.891Z,23.90
2022-07-25T08:54:33.852Z,24.05
2022-07-25T08:59:56.784Z,24.17
2022-07-25T09:05:20.478Z,24.31
2022-07-25T09:10:49.204Z,24.43
2022-07-25T09:16:13.282Z,24.55
2022-07-25T09:21:37.544Z,24.66
2022-07-25T09:27:12.610Z,24.79
2022-07-25T09:32:36.604Z,24.92
2022-07-25T09:37:59.065Z,25.04
2022-07-25T09:43:21.343Z,25.18
2022-07-25T09:48:45.731Z,25.33
2022-07-25T09:54:13.078Z,25.44
2022-07-25T09:59:35.391Z,25.58
2022-07-25T10:05:08.992Z,25.68
2022-07-25T10:10:47.188Z,25.80
2022-07-25T10:16:23.024Z,26.01
2022-07-25T10:21:45.777Z,25.93
2022-07-25T10:27:23.465Z,26.04
2022-07-25T10:32:48.202Z,26.19
2022-07-25T10:38:12.820Z,26.34
2022-07-25T10:43:44.613Z,26.48
2022-07-25T10:49:12.878Z,26.60
2022-07-25T10:54:40.232Z,26.77
2022-07-25T11:00:05.181Z,26.89
2022-07-25T11:05:30.256Z,27.03
2022-07-25T11:10:54.455Z,27.18
2022-07-25T11:16:18.133Z,27.38
2022-07-25T11:21:42.336Z,27.62
2022-07-25T11:27:12.156Z,27.84
2022-07-25T11:32:33.051Z,28.02
2022-07-25T11:37:58.494Z,28.22
2022-07-25T11:43:27.055Z,28.46
2022-07-25T11:48:56.911Z,28.63
2022-07-25T11:54:21.906Z,28.84
2022-07-25T11:59:50.300Z,29.06
2022-07-25T12:05:20.536Z,29.24
2022-07-25T12:10:52.804Z,29.43
2022-07-25T12:16:17.664Z,29.56
2022-07-25T12:21:41.543Z,29.74
2022-07-25T12:27:04.308Z,29.91
2022-07-25T12:32:26.621Z,30.11
2022-07-25T12:37:50.084Z,30.31
2022-07-25T12:43:13.671Z,30.48
2022-07-25T12:48:35.960Z,30.65
2022-07-25T12:53:58.183Z,30.79
2022-07-25T12:59:22.239Z,30.95
2022-07-25T13:04:44.696Z,31.13
2022-07-25T13:10:07.204Z,31.38
2022-07-25T13:15:30.749Z,31.61
2022-07-25T13:20:54.961Z,31.81
2022-07-25T13:26:27.436Z,32.05
2022-07-25T13:31:50.658Z,32.38
2022-07-25T13:37:13.813Z,32.64
2022-07-25T13:42:36.313Z,32.84
2022-07-25T13:48:18.935Z,33.13
2022-07-25T13:59:04.751Z,33.82
2022-07-25T14:04:27.938Z,34.05
2022-07-25T14:09:51.043Z,34.32
2022-07-25T14:20:50.488Z,35.21
2022-07-25T14:26:14.823Z,35.24
2022-07-25T14:31:39.187Z,35.37
2022-07-25T14:37:01.711Z,35.57
2022-07-25T14:42:24.106Z,35.65
2022-07-25T14:47:48.323Z,35.75
2022-07-25T14:53:11.183Z,36.02
2022-07-25T14:58:34.375Z,36.21
2022-07-25T15:03:57.391Z,36.39
2022-07-25T15:09:20.898Z,36.62
2022-07-25T15:14:44.431Z,36.91
2022-07-25T15:20:06.662Z,37.31
2022-07-25T15:26:00.631Z,37.63
2022-07-25T15:30:53.146Z,38.09
2022-07-25T15:36:15.503Z,38.58
2022-07-25T15:41:38.669Z,39.00
2022-07-25T15:47:01.251Z,39.61
2022-07-25T15:52:25.409Z,40.09
2022-07-25T15:57:48.597Z,40.51
2022-07-25T16:03:12.538Z,40.92
2022-07-25T16:08:35.451Z,41.14
2022-07-25T16:13:57.742Z,41.31
2022-07-25T16:19:19.994Z,41.60
2022-07-25T16:24:43.087Z,42.01
2022-07-25T16:30:05.689Z,42.85
2022-07-25T16:35:28.171Z,43.68
2022-07-25T16:40:50.357Z,44.38
2022-07-25T16:46:13.683Z,44.96
2022-07-25T16:51:37.293Z,45.22
2022-07-25T16:57:00.031Z,45.36
2022-07-25T17:02:27.522Z,44.66
2022-07-25T17:07:46.901Z,44.16
2022-07-25T17:13:09.735Z,44.42
2022-07-25T17:18:32.632Z,43.44
2022-07-25T17:23:56.624Z,42.79
2022-07-25T17:29:19.459Z,42.78
2022-07-25T17:34:41.965Z,42.54
2022-07-25T17:40:05.392Z,41.41
2022-07-25T17:45:28.584Z,40.47
2022-07-25T17:50:52.652Z,39.43
2022-07-25T17:56:15.956Z,37.97
2022-07-25T18:01:38.329Z,37.30
2022-07-25T18:07:00.732Z,36.81
2022-07-25T18:12:29.068Z,36.09
2022-07-25T18:17:48.825Z,35.87
2022-07-25T18:23:24.784Z,35.19
2022-07-25T18:28:48.476Z,34.28
2022-07-25T18:34:11.758Z,33.43
2022-07-25T18:39:34.653Z,32.76
2022-07-25T18:44:56.845Z,32.16
2022-07-25T18:55:52.166Z,31.25
2022-07-25T19:01:14.478Z,30.77
2022-07-25T19:06:36.948Z,30.43
2022-07-25T19:12:01.380Z,30.11
2022-07-25T19:17:24.955Z,29.81
2022-07-25T19:22:48.282Z,29.53
2022-07-25T19:28:10.883Z,29.26
2022-07-25T19:33:35.939Z,29.01
2022-07-25T19:38:57.512Z,28.79
2022-07-25T19:44:21.121Z,28.58
2022-07-25T19:49:43.594Z,28.38
2022-07-25T19:55:06.004Z,28.18
2022-07-25T20:00:28.762Z,28.04
2022-07-25T20:05:51.257Z,27.88
2022-07-25T20:11:13.986Z,27.75
2022-07-25T20:16:39.053Z,27.60
2022-07-25T20:22:02.545Z,27.48
2022-07-25T20:27:24.899Z,27.35
2022-07-25T20:32:47.349Z,27.22
2022-07-25T20:38:10.433Z,27.10
2022-07-25T20:43:33.547Z,26.97
2022-07-25T20:48:55.938Z,26.81
2022-07-25T20:54:19.044Z,26.66
2022-07-25T20:59:41.287Z,26.52
2022-07-25T21:05:03.551Z,26.36
2022-07-25T21:10:27.630Z,26.21
2022-07-25T21:15:52.126Z,26.12
2022-07-25T21:21:18.032Z,26.01
2022-07-25T21:26:43.098Z,25.91
2022-07-25T21:32:05.474Z,25.87
2022-07-25T21:37:28.579Z,25.75
2022-07-25T21:42:50.743Z,25.63
2022-07-25T21:48:13.396Z,25.57
2022-07-25T21:53:35.552Z,25.49
2022-07-25T21:58:57.742Z,25.41
2022-07-25T22:04:21.422Z,25.34
2022-07-25T22:09:44.292Z,25.28
2022-07-25T22:15:06.893Z,25.23
2022-07-25T22:20:31.934Z,25.20
2022-07-25T22:25:54.573Z,25.16
2022-07-25T22:31:17.244Z,25.10
2022-07-25T22:36:40.050Z,25.06
2022-07-25T22:42:02.922Z,25.00
2022-07-25T22:47:25.629Z,24.92
2022-07-25T22:52:48.953Z,24.83
2022-07-25T22:58:11.773Z,24.78
2022-07-25T23:03:34.716Z,24.70
2022-07-25T23:08:58.554Z,24.65
2022-07-25T23:14:21.410Z,24.56
2022-07-25T23:19:44.055Z,24.47
2022-07-25T23:25:09.427Z,24.38
2022-07-25T23:30:38.002Z,24.31
2022-07-25T23:35:57.241Z,24.23
2022-07-25T23:41:19.596Z,24.07
2022-07-25T23:46:43.017Z,23.96
2022-07-25T23:52:07.811Z,23.91
2022-07-25T23:57:30.654Z,23.84
